FBSK

Details ICAO FBSK (GBE)
Name Gaborone International Airport Sir Sereste Khama
Region Botswana
Timezone Africa/Gaborone (UTC+2.0)
Plans Departing 125
Arriving 121
Stats Elevation 3,298 ft / 1,005 m (AMSL)
Location -24.553100° 25.922800°
Runways 1
Magnetic Variation 15.757° W
Sunrise 2019-04-22 04:34:40 UTC / 2019-04-22 06:34:40 Local
Sunset 2019-04-22 15:57:22 UTC / 2019-04-22 17:57:22 Local
Advertisement - Login to hide

Runways

ID Width Length Bearing (true/mag) Surface Threshold Overrun Markings Lighting
08 148 ft / 45 m 13,124 ft / 4,000 m 61.48° / 77.24° CONCRETE 0 ft / 0 m 0 ft / 0 m PREC-APP EDGE THRESHOLD ALSF-II
26 148 ft / 45 m 13,124 ft / 4,000 m 241.47° / 257.23° CONCRETE 0 ft / 0 m 0 ft / 0 m PREC-APP EDGE THRESHOLD MALS

Map

Weather


0- 5 10 15 20 25 30 35+ Temperature / °C

Clouds and Precipitation
Forecast for 2019-04-22 12:00 UTC. Updated an hour ago

Ground ~20,000 ft ~40,000 ft Winds

METAR

FBSK 221000Z 02011KT 340V050 9999 BKN025 23/14 Q1021 NOSIG

TAF

TAF FBSK 220300Z 2206/2312 03012KT 9999 BKN014 BECMG 2209/2211 SCT025 PROB30 TEMPO 2213/2224 TSRA FEW035CB BECMG 2302/2304 CAVOK BECMG 2304/2306 BKN014 BECMG 2309/2311 SCT025

Frequencies

Approach 128.20 MHz Gaborone Approach
Ground 121.90 MHz Khama Ground
Recorded 126.60 MHz ATIS
Tower 118.30 MHz Khama Tower
Warning: Do not use this data for real-world aviation or navigation. No guarantee of current accuracy is given.